sensor_id;sensor_type;location;lat;lon;timestamp;P1;durP1;ratioP1;P2;durP2;ratioP2
21488;SDS011;10906;45.194;5.684;2024-03-08T06:01:34;15.73;;;9.18;;
21488;SDS011;10906;45.194;5.684;2024-03-08T06:04:19;14.25;;;10.35;;
21488;SDS011;10906;45.194;5.684;2024-03-08T06:07:04;13.48;;;10.02;;
21488;SDS011;10906;45.194;5.684;2024-03-08T06:09:49;12.82;;;9.80;;
21488;SDS011;10906;45.194;5.684;2024-03-08T06:12:33;16.10;;;10.57;;
21488;SDS011;10906;45.194;5.684;2024-03-08T06:15:23;13.40;;;10.13;;
21488;SDS011;10906;45.194;5.684;2024-03-08T06:20:55;12.90;;;9.48;;
21488;SDS011;10906;45.194;5.684;2024-03-08T06:23:40;14.20;;;10.82;;
21488;SDS011;10906;45.194;5.684;2024-03-08T06:26:27;15.80;;;10.10;;
21488;SDS011;10906;45.194;5.684;2024-03-08T06:29:32;15.48;;;9.77;;
21488;SDS011;10906;45.194;5.684;2024-03-08T06:32:17;12.00;;;8.85;;
21488;SDS011;10906;45.194;5.684;2024-03-08T06:35:05;14.27;;;9.07;;
21488;SDS011;10906;45.194;5.684;2024-03-08T06:37:50;13.18;;;9.50;;
21488;SDS011;10906;45.194;5.684;2024-03-08T06:40:34;16.00;;;10.05;;
21488;SDS011;10906;45.194;5.684;2024-03-08T06:43:19;12.80;;;9.07;;
21488;SDS011;10906;45.194;5.684;2024-03-08T06:46:04;14.20;;;9.85;;
21488;SDS011;10906;45.194;5.684;2024-03-08T06:48:48;15.55;;;10.32;;
21488;SDS011;10906;45.194;5.684;2024-03-08T06:51:33;19.20;;;11.50;;
21488;SDS011;10906;45.194;5.684;2024-03-08T06:54:17;13.68;;;10.63;;
21488;SDS011;10906;45.194;5.684;2024-03-08T06:57:02;15.15;;;10.57;;
21488;SDS011;10906;45.194;5.684;2024-03-08T06:59:47;17.15;;;11.57;;
21488;SDS011;10906;45.194;5.684;2024-03-08T07:02:32;17.27;;;11.05;;
21488;SDS011;10906;45.194;5.684;2024-03-08T07:05:18;18.67;;;12.80;;
21488;SDS011;10906;45.194;5.684;2024-03-08T07:08:03;20.27;;;12.55;;
21488;SDS011;10906;45.194;5.684;2024-03-08T07:10:47;15.68;;;11.32;;
21488;SDS011;10906;45.194;5.684;2024-03-08T07:13:33;18.27;;;12.60;;
21488;SDS011;10906;45.194;5.684;2024-03-08T07:16:17;23.17;;;12.50;;
21488;SDS011;10906;45.194;5.684;2024-03-08T07:19:01;19.75;;;13.35;;
21488;SDS011;10906;45.194;5.684;2024-03-08T07:21:49;18.70;;;12.45;;
21488;SDS011;10906;45.194;5.684;2024-03-08T07:24:33;19.33;;;12.32;;
21488;SDS011;10906;45.194;5.684;2024-03-08T07:27:30;16.83;;;12.85;;
21488;SDS011;10906;45.194;5.684;2024-03-08T07:30:14;17.98;;;13.45;;
21488;SDS011;10906;45.194;5.684;2024-03-08T07:33:18;16.77;;;12.57;;
21488;SDS011;10906;45.194;5.684;2024-03-08T07:36:03;18.25;;;13.35;;
21488;SDS011;10906;45.194;5.684;2024-03-08T07:38:47;23.00;;;12.60;;
21488;SDS011;10906;45.194;5.684;2024-03-08T07:41:31;17.58;;;12.10;;
21488;SDS011;10906;45.194;5.684;2024-03-08T07:44:17;17.92;;;12.93;;
21488;SDS011;10906;45.194;5.684;2024-03-08T07:47:03;16.02;;;11.85;;
21488;SDS011;10906;45.194;5.684;2024-03-08T07:49:47;18.58;;;13.00;;
21488;SDS011;10906;45.194;5.684;2024-03-08T07:52:32;15.65;;;11.75;;
21488;SDS011;10906;45.194;5.684;2024-03-08T07:55:17;19.45;;;13.00;;
21488;SDS011;10906;45.194;5.684;2024-03-08T07:58:02;18.27;;;12.90;;
21488;SDS011;10906;45.194;5.684;2024-03-08T08:00:46;18.48;;;13.70;;
21488;SDS011;10906;45.194;5.684;2024-03-08T08:03:31;18.20;;;13.10;;
21488;SDS011;10906;45.194;5.684;2024-03-08T08:06:16;18.35;;;12.93;;
21488;SDS011;10906;45.194;5.684;2024-03-08T08:09:00;18.13;;;13.88;;
21488;SDS011;10906;45.194;5.684;2024-03-08T08:11:44;22.20;;;14.23;;
21488;SDS011;10906;45.194;5.684;2024-03-08T08:14:29;22.50;;;14.75;;
21488;SDS011;10906;45.194;5.684;2024-03-08T08:17:14;18.42;;;13.48;;
21488;SDS011;10906;45.194;5.684;2024-03-08T08:19:59;17.58;;;13.68;;
21488;SDS011;10906;45.194;5.684;2024-03-08T08:22:49;18.85;;;13.75;;
21488;SDS011;10906;45.194;5.684;2024-03-08T08:25:33;18.10;;;13.50;;
21488;SDS011;10906;45.194;5.684;2024-03-08T08:28:18;19.20;;;13.77;;
21488;SDS011;10906;45.194;5.684;2024-03-08T08:31:03;15.73;;;11.70;;
21488;SDS011;10906;45.194;5.684;2024-03-08T08:33:47;19.25;;;12.23;;
21488;SDS011;10906;45.194;5.684;2024-03-08T08:36:32;16.88;;;13.15;;
21488;SDS011;10906;45.194;5.684;2024-03-08T08:39:17;20.63;;;13.25;;
21488;SDS011;10906;45.194;5.684;2024-03-08T08:42:03;19.33;;;12.63;;
21488;SDS011;10906;45.194;5.684;2024-03-08T08:44:47;20.67;;;14.18;;
21488;SDS011;10906;45.194;5.684;2024-03-08T08:47:35;20.92;;;13.77;;
21488;SDS011;10906;45.194;5.684;2024-03-08T08:50:19;20.67;;;13.90;;
21488;SDS011;10906;45.194;5.684;2024-03-08T08:53:06;19.77;;;13.88;;
21488;SDS011;10906;45.194;5.684;2024-03-08T08:55:51;19.58;;;12.27;;
21488;SDS011;10906;45.194;5.684;2024-03-08T08:58:36;17.08;;;12.15;;
21488;SDS011;10906;45.194;5.684;2024-03-08T09:01:21;16.48;;;12.15;;
21488;SDS011;10906;45.194;5.684;2024-03-08T09:04:06;14.13;;;10.95;;
21488;SDS011;10906;45.194;5.684;2024-03-08T09:06:55;17.52;;;11.05;;
21488;SDS011;10906;45.194;5.684;2024-03-08T09:09:41;13.32;;;9.93;;
21488;SDS011;10906;45.194;5.684;2024-03-08T09:12:26;12.18;;;9.20;;
21488;SDS011;10906;45.194;5.684;2024-03-08T09:15:11;12.23;;;8.90;;
21488;SDS011;10906;45.194;5.684;2024-03-08T09:17:56;11.23;;;9.57;;
21488;SDS011;10906;45.194;5.684;2024-03-08T09:20:40;15.00;;;9.23;;
21488;SDS011;10906;45.194;5.684;2024-03-08T09:23:25;12.13;;;8.52;;
21488;SDS011;10906;45.194;5.684;2024-03-08T09:26:14;14.60;;;10.18;;
21488;SDS011;10906;45.194;5.684;2024-03-08T09:28:59;14.00;;;9.35;;
21488;SDS011;10906;45.194;5.684;2024-03-08T09:31:43;15.35;;;10.63;;
21488;SDS011;10906;45.194;5.684;2024-03-08T09:34:29;15.73;;;10.45;;
21488;SDS011;10906;45.194;5.684;2024-03-08T09:37:14;12.00;;;9.32;;
21488;SDS011;10906;45.194;5.684;2024-03-08T09:40:04;15.10;;;9.95;;
21488;SDS011;10906;45.194;5.684;2024-03-08T09:42:53;22.58;;;13.50;;
21488;SDS011;10906;45.194;5.684;2024-03-08T09:45:39;13.70;;;10.02;;
21488;SDS011;10906;45.194;5.684;2024-03-08T09:48:25;13.77;;;10.02;;
21488;SDS011;10906;45.194;5.684;2024-03-08T09:51:10;12.68;;;10.07;;
21488;SDS011;10906;45.194;5.684;2024-03-08T09:53:58;13.57;;;10.27;;
21488;SDS011;10906;45.194;5.684;2024-03-08T09:56:43;10.70;;;8.75;;
21488;SDS011;10906;45.194;5.684;2024-03-08T09:59:31;13.70;;;9.23;;
21488;SDS011;10906;45.194;5.684;2024-03-08T10:02:21;10.63;;;8.95;;
21488;SDS011;10906;45.194;5.684;2024-03-08T10:05:06;12.07;;;9.35;;
21488;SDS011;10906;45.194;5.684;2024-03-08T10:07:54;12.32;;;9.20;;
21488;SDS011;10906;45.194;5.684;2024-03-08T10:10:39;11.23;;;9.02;;
21488;SDS011;10906;45.194;5.684;2024-03-08T10:13:24;13.05;;;9.75;;
21488;SDS011;10906;45.194;5.684;2024-03-08T10:16:12;13.75;;;9.88;;
21488;SDS011;10906;45.194;5.684;2024-03-08T10:18:57;11.95;;;9.52;;
21488;SDS011;10906;45.194;5.684;2024-03-08T10:21:48;12.27;;;9.38;;
21488;SDS011;10906;45.194;5.684;2024-03-08T10:24:33;15.20;;;9.75;;
21488;SDS011;10906;45.194;5.684;2024-03-08T10:27:17;12.20;;;9.38;;
21488;SDS011;10906;45.194;5.684;2024-03-08T10:30:02;13.10;;;8.68;;
21488;SDS011;10906;45.194;5.684;2024-03-08T10:32:50;11.15;;;8.82;;
21488;SDS011;10906;45.194;5.684;2024-03-08T10:35:35;10.77;;;7.90;;
21488;SDS011;10906;45.194;5.684;2024-03-08T10:38:19;9.93;;;8.15;;
21488;SDS011;10906;45.194;5.684;2024-03-08T10:41:06;11.80;;;8.00;;
21488;SDS011;10906;45.194;5.684;2024-03-08T10:47:16;12.57;;;9.45;;
21488;SDS011;10906;45.194;5.684;2024-03-08T10:50:18;12.32;;;7.72;;
21488;SDS011;10906;45.194;5.684;2024-03-08T10:53:06;13.50;;;8.60;;
21488;SDS011;10906;45.194;5.684;2024-03-08T10:55:50;11.82;;;7.80;;
21488;SDS011;10906;45.194;5.684;2024-03-08T10:58:36;10.05;;;7.35;;
21488;SDS011;10906;45.194;5.684;2024-03-08T11:01:21;10.48;;;7.55;;
21488;SDS011;10906;45.194;5.684;2024-03-08T11:04:09;10.23;;;6.75;;
21488;SDS011;10906;45.194;5.684;2024-03-08T11:06:53;11.48;;;7.20;;
21488;SDS011;10906;45.194;5.684;2024-03-08T11:09:50;10.95;;;6.47;;
21488;SDS011;10906;45.194;5.684;2024-03-08T11:12:37;10.60;;;7.35;;
21488;SDS011;10906;45.194;5.684;2024-03-08T11:15:22;14.90;;;8.07;;
21488;SDS011;10906;45.194;5.684;2024-03-08T11:18:08;11.40;;;7.43;;
21488;SDS011;10906;45.194;5.684;2024-03-08T11:20:54;9.20;;;6.75;;
21488;SDS011;10906;45.194;5.684;2024-03-08T11:23:38;11.80;;;6.80;;
21488;SDS011;10906;45.194;5.684;2024-03-08T11:26:26;13.00;;;6.97;;
21488;SDS011;10906;45.194;5.684;2024-03-08T11:32:19;10.80;;;6.10;;
21488;SDS011;10906;45.194;5.684;2024-03-08T11:35:06;9.82;;;6.00;;
21488;SDS011;10906;45.194;5.684;2024-03-08T11:37:52;8.02;;;5.90;;
21488;SDS011;10906;45.194;5.684;2024-03-08T11:40:38;10.48;;;6.45;;
21488;SDS011;10906;45.194;5.684;2024-03-08T11:43:24;11.95;;;6.22;;
21488;SDS011;10906;45.194;5.684;2024-03-08T11:46:09;10.75;;;7.80;;
21488;SDS011;10906;45.194;5.684;2024-03-08T11:48:56;9.65;;;7.30;;
21488;SDS011;10906;45.194;5.684;2024-03-08T11:51:40;9.85;;;6.80;;
21488;SDS011;10906;45.194;5.684;2024-03-08T11:54:25;11.35;;;7.32;;
21488;SDS011;10906;45.194;5.684;2024-03-08T11:57:09;10.93;;;7.53;;
21488;SDS011;10906;45.194;5.684;2024-03-08T11:59:55;11.63;;;7.82;;
21488;SDS011;10906;45.194;5.684;2024-03-08T12:02:41;12.48;;;7.68;;
21488;SDS011;10906;45.194;5.684;2024-03-08T12:05:32;12.77;;;6.93;;
21488;SDS011;10906;45.194;5.684;2024-03-08T12:08:17;7.80;;;5.70;;
21488;SDS011;10906;45.194;5.684;2024-03-08T12:11:03;9.75;;;6.55;;
21488;SDS011;10906;45.194;5.684;2024-03-08T12:13:48;16.27;;;6.80;;
21488;SDS011;10906;45.194;5.684;2024-03-08T12:16:34;10.18;;;6.20;;
21488;SDS011;10906;45.194;5.684;2024-03-08T12:19:20;11.95;;;6.50;;
21488;SDS011;10906;45.194;5.684;2024-03-08T12:22:08;11.85;;;7.38;;
21488;SDS011;10906;45.194;5.684;2024-03-08T12:25:03;9.73;;;6.60;;
21488;SDS011;10906;45.194;5.684;2024-03-08T12:27:49;9.05;;;6.57;;
21488;SDS011;10906;45.194;5.684;2024-03-08T12:30:43;10.45;;;7.22;;
21488;SDS011;10906;45.194;5.684;2024-03-08T12:36:15;10.57;;;7.43;;
21488;SDS011;10906;45.194;5.684;2024-03-08T12:39:00;12.70;;;8.48;;
21488;SDS011;10906;45.194;5.684;2024-03-08T12:41:45;12.63;;;8.00;;
21488;SDS011;10906;45.194;5.684;2024-03-08T12:44:30;9.90;;;7.75;;
21488;SDS011;10906;45.194;5.684;2024-03-08T12:47:15;11.68;;;9.20;;
21488;SDS011;10906;45.194;5.684;2024-03-08T12:49:59;9.70;;;8.10;;
21488;SDS011;10906;45.194;5.684;2024-03-08T12:52:43;11.20;;;7.85;;
21488;SDS011;10906;45.194;5.684;2024-03-08T12:55:28;13.27;;;7.43;;
21488;SDS011;10906;45.194;5.684;2024-03-08T12:58:12;12.63;;;7.57;;
21488;SDS011;10906;45.194;5.684;2024-03-08T13:00:57;10.02;;;7.25;;
21488;SDS011;10906;45.194;5.684;2024-03-08T13:03:41;12.73;;;8.18;;
21488;SDS011;10906;45.194;5.684;2024-03-08T13:06:27;10.95;;;8.20;;
21488;SDS011;10906;45.194;5.684;2024-03-08T13:09:12;12.23;;;7.88;;
21488;SDS011;10906;45.194;5.684;2024-03-08T13:11:57;14.25;;;8.75;;
21488;SDS011;10906;45.194;5.684;2024-03-08T13:14:44;11.52;;;8.75;;
21488;SDS011;10906;45.194;5.684;2024-03-08T13:20:13;10.90;;;8.15;;
21488;SDS011;10906;45.194;5.684;2024-03-08T13:23:03;12.82;;;8.73;;
21488;SDS011;10906;45.194;5.684;2024-03-08T13:25:49;11.75;;;9.10;;
21488;SDS011;10906;45.194;5.684;2024-03-08T13:28:34;8.82;;;7.43;;
21488;SDS011;10906;45.194;5.684;2024-03-08T13:31:21;21.85;;;15.52;;
21488;SDS011;10906;45.194;5.684;2024-03-08T13:34:06;10.63;;;7.80;;
21488;SDS011;10906;45.194;5.684;2024-03-08T13:36:51;11.93;;;8.70;;
21488;SDS011;10906;45.194;5.684;2024-03-08T13:39:38;15.23;;;10.23;;
21488;SDS011;10906;45.194;5.684;2024-03-08T13:42:27;20.55;;;14.80;;
21488;SDS011;10906;45.194;5.684;2024-03-08T13:45:11;12.00;;;7.30;;
21488;SDS011;10906;45.194;5.684;2024-03-08T13:47:56;10.60;;;7.70;;
21488;SDS011;10906;45.194;5.684;2024-03-08T13:50:40;12.60;;;8.77;;
21488;SDS011;10906;45.194;5.684;2024-03-08T13:53:25;11.20;;;7.68;;
21488;SDS011;10906;45.194;5.684;2024-03-08T13:56:10;10.32;;;7.15;;
21488;SDS011;10906;45.194;5.684;2024-03-08T13:58:55;9.82;;;6.93;;
21488;SDS011;10906;45.194;5.684;2024-03-08T14:01:40;8.82;;;4.65;;
21488;SDS011;10906;45.194;5.684;2024-03-08T14:04:29;8.55;;;7.00;;
21488;SDS011;10906;45.194;5.684;2024-03-08T14:07:14;8.00;;;6.78;;
21488;SDS011;10906;45.194;5.684;2024-03-08T14:10:00;9.05;;;6.25;;
21488;SDS011;10906;45.194;5.684;2024-03-08T14:12:44;13.23;;;7.63;;
21488;SDS011;10906;45.194;5.684;2024-03-08T14:15:31;10.23;;;4.50;;
21488;SDS011;10906;45.194;5.684;2024-03-08T14:18:16;2.42;;;2.03;;
21488;SDS011;10906;45.194;5.684;2024-03-08T14:21:01;2.75;;;0.60;;
21488;SDS011;10906;45.194;5.684;2024-03-08T14:23:45;2.88;;;1.80;;
21488;SDS011;10906;45.194;5.684;2024-03-08T14:26:32;2.95;;;0.90;;
21488;SDS011;10906;45.194;5.684;2024-03-08T14:29:17;7.20;;;2.80;;
21488;SDS011;10906;45.194;5.684;2024-03-08T14:32:02;15.35;;;9.77;;
21488;SDS011;10906;45.194;5.684;2024-03-08T14:34:49;7.10;;;3.30;;
21488;SDS011;10906;45.194;5.684;2024-03-08T14:37:34;47.10;;;29.40;;
21488;SDS011;10906;45.194;5.684;2024-03-08T14:40:18;40.15;;;23.50;;
21488;SDS011;10906;45.194;5.684;2024-03-08T14:43:09;11.00;;;7.35;;
21488;SDS011;10906;45.194;5.684;2024-03-08T14:45:54;15.55;;;10.15;;
21488;SDS011;10906;45.194;5.684;2024-03-08T14:48:39;9.18;;;5.90;;
21488;SDS011;10906;45.194;5.684;2024-03-08T14:51:24;2.42;;;1.75;;
21488;SDS011;10906;45.194;5.684;2024-03-08T14:54:12;3.40;;;1.83;;
21488;SDS011;10906;45.194;5.684;2024-03-08T14:56:56;0.80;;;0.57;;
21488;SDS011;10906;45.194;5.684;2024-03-08T14:59:41;3.22;;;1.75;;
21488;SDS011;10906;45.194;5.684;2024-03-08T15:02:26;1.13;;;0.98;;
21488;SDS011;10906;45.194;5.684;2024-03-08T15:05:11;3.50;;;1.65;;
21488;SDS011;10906;45.194;5.684;2024-03-08T15:07:55;2.63;;;1.85;;
21488;SDS011;10906;45.194;5.684;2024-03-08T15:10:39;7.07;;;4.55;;
21488;SDS011;10906;45.194;5.684;2024-03-08T15:13:24;0.60;;;0.60;;
21488;SDS011;10906;45.194;5.684;2024-03-08T15:16:11;1.40;;;1.15;;
21488;SDS011;10906;45.194;5.684;2024-03-08T15:19:00;2.58;;;0.95;;
21488;SDS011;10906;45.194;5.684;2024-03-08T15:21:46;2.08;;;1.35;;
21488;SDS011;10906;45.194;5.684;2024-03-08T15:24:31;1.35;;;1.10;;
21488;SDS011;10906;45.194;5.684;2024-03-08T15:27:17;2.65;;;0.98;;
21488;SDS011;10906;45.194;5.684;2024-03-08T15:32:47;15.98;;;10.73;;
21488;SDS011;10906;45.194;5.684;2024-03-08T15:35:31;3.08;;;2.65;;
21488;SDS011;10906;45.194;5.684;2024-03-08T15:38:16;1.55;;;0.98;;
21488;SDS011;10906;45.194;5.684;2024-03-08T15:41:03;3.25;;;1.67;;
21488;SDS011;10906;45.194;5.684;2024-03-08T15:43:56;30.48;;;17.55;;
21488;SDS011;10906;45.194;5.684;2024-03-08T15:46:41;5.70;;;3.03;;
21488;SDS011;10906;45.194;5.684;2024-03-08T15:49:25;29.67;;;17.00;;
21488;SDS011;10906;45.194;5.684;2024-03-08T15:52:12;5.00;;;1.77;;
21488;SDS011;10906;45.194;5.684;2024-03-08T15:54:56;4.60;;;3.53;;
21488;SDS011;10906;45.194;5.684;2024-03-08T15:57:41;4.53;;;2.53;;
21488;SDS011;10906;45.194;5.684;2024-03-08T16:00:25;4.50;;;3.67;;
21488;SDS011;10906;45.194;5.684;2024-03-08T16:03:20;5.68;;;3.92;;
21488;SDS011;10906;45.194;5.684;2024-03-08T16:06:04;4.85;;;2.72;;
21488;SDS011;10906;45.194;5.684;2024-03-08T16:08:50;1.50;;;1.38;;
21488;SDS011;10906;45.194;5.684;2024-03-08T16:11:34;2.80;;;2.03;;
21488;SDS011;10906;45.194;5.684;2024-03-08T16:14:21;2.95;;;1.50;;
21488;SDS011;10906;45.194;5.684;2024-03-08T16:17:06;6.97;;;6.00;;
21488;SDS011;10906;45.194;5.684;2024-03-08T16:19:50;2.92;;;1.40;;
21488;SDS011;10906;45.194;5.684;2024-03-08T16:22:35;67.97;;;43.45;;
21488;SDS011;10906;45.194;5.684;2024-03-08T16:25:25;6.88;;;4.68;;
21488;SDS011;10906;45.194;5.684;2024-03-08T16:28:10;8.60;;;5.35;;
21488;SDS011;10906;45.194;5.684;2024-03-08T16:30:56;16.13;;;9.85;;
21488;SDS011;10906;45.194;5.684;2024-03-08T16:33:42;26.95;;;15.10;;
21488;SDS011;10906;45.194;5.684;2024-03-08T16:36:28;19.80;;;12.20;;
21488;SDS011;10906;45.194;5.684;2024-03-08T16:39:12;31.60;;;20.50;;
21488;SDS011;10906;45.194;5.684;2024-03-08T16:41:57;18.30;;;12.25;;
21488;SDS011;10906;45.194;5.684;2024-03-08T16:44:41;96.38;;;58.72;;
21488;SDS011;10906;45.194;5.684;2024-03-08T16:47:26;167.38;;;87.90;;
21488;SDS011;10906;45.194;5.684;2024-03-08T16:50:11;392.83;;;253.32;;
21488;SDS011;10906;45.194;5.684;2024-03-08T16:53:03;105.97;;;60.00;;
21488;SDS011;10906;45.194;5.684;2024-03-08T16:55:48;144.32;;;106.35;;
21488;SDS011;10906;45.194;5.684;2024-03-08T16:58:35;137.18;;;109.15;;
21488;SDS011;10906;45.194;5.684;2024-03-08T17:01:19;96.50;;;78.55;;
21488;SDS011;10906;45.194;5.684;2024-03-08T17:04:04;56.38;;;49.33;;
21488;SDS011;10906;45.194;5.684;2024-03-08T17:06:50;93.88;;;83.95;;
21488;SDS011;10906;45.194;5.684;2024-03-08T17:09:34;40.35;;;36.33;;
21488;SDS011;10906;45.194;5.684;2024-03-08T17:12:19;18.50;;;16.70;;
21488;SDS011;10906;45.194;5.684;2024-03-08T17:15:04;18.55;;;16.65;;
21488;SDS011;10906;45.194;5.684;2024-03-08T17:17:50;8.18;;;6.32;;
21488;SDS011;10906;45.194;5.684;2024-03-08T17:20:37;3.47;;;2.92;;
21488;SDS011;10906;45.194;5.684;2024-03-08T17:23:22;4.57;;;2.40;;
21488;SDS011;10906;45.194;5.684;2024-03-08T17:26:07;5.28;;;2.92;;
21488;SDS011;10906;45.194;5.684;2024-03-08T17:28:51;5.50;;;3.90;;
21488;SDS011;10906;45.194;5.684;2024-03-08T17:31:37;6.70;;;4.32;;
21488;SDS011;10906;45.194;5.684;2024-03-08T17:34:21;8.38;;;5.28;;
21488;SDS011;10906;45.194;5.684;2024-03-08T17:37:06;14.98;;;5.70;;
21488;SDS011;10906;45.194;5.684;2024-03-08T17:39:51;10.07;;;5.25;;
21488;SDS011;10906;45.194;5.684;2024-03-08T17:42:38;7.28;;;4.93;;
21488;SDS011;10906;45.194;5.684;2024-03-08T17:45:23;11.75;;;5.22;;
21488;SDS011;10906;45.194;5.684;2024-03-08T17:48:10;8.18;;;5.35;;
21488;SDS011;10906;45.194;5.684;2024-03-08T17:50:59;7.15;;;4.95;;
21488;SDS011;10906;45.194;5.684;2024-03-08T17:53:45;6.10;;;4.50;;
21488;SDS011;10906;45.194;5.684;2024-03-08T17:56:32;11.25;;;4.90;;
21488;SDS011;10906;45.194;5.684;2024-03-08T17:59:17;6.35;;;4.47;;
21488;SDS011;10906;45.194;5.684;2024-03-08T18:02:02;8.82;;;5.25;;
21488;SDS011;10906;45.194;5.684;2024-03-08T18:04:47;9.18;;;4.78;;
21488;SDS011;10906;45.194;5.684;2024-03-08T18:07:32;25.40;;;14.65;;
21488;SDS011;10906;45.194;5.684;2024-03-08T18:10:16;30.33;;;16.67;;
21488;SDS011;10906;45.194;5.684;2024-03-08T18:13:07;18.98;;;13.05;;
21488;SDS011;10906;45.194;5.684;2024-03-08T18:15:59;21.55;;;15.65;;
21488;SDS011;10906;45.194;5.684;2024-03-08T18:18:45;21.30;;;13.15;;
21488;SDS011;10906;45.194;5.684;2024-03-08T18:21:33;12.18;;;7.65;;
21488;SDS011;10906;45.194;5.684;2024-03-08T18:24:20;15.88;;;10.07;;
21488;SDS011;10906;45.194;5.684;2024-03-08T18:27:04;10.70;;;8.45;;
21488;SDS011;10906;45.194;5.684;2024-03-08T18:29:50;12.07;;;7.22;;
21488;SDS011;10906;45.194;5.684;2024-03-08T18:32:35;14.85;;;9.75;;
21488;SDS011;10906;45.194;5.684;2024-03-08T18:35:20;11.20;;;7.93;;
21488;SDS011;10906;45.194;5.684;2024-03-08T18:38:07;9.73;;;5.60;;
21488;SDS011;10906;45.194;5.684;2024-03-08T18:40:52;9.93;;;5.95;;
21488;SDS011;10906;45.194;5.684;2024-03-08T18:43:37;23.63;;;16.95;;
21488;SDS011;10906;45.194;5.684;2024-03-08T18:46:21;7.53;;;3.20;;
21488;SDS011;10906;45.194;5.684;2024-03-08T18:49:06;4.00;;;2.00;;
21488;SDS011;10906;45.194;5.684;2024-03-08T18:51:53;44.50;;;30.73;;
21488;SDS011;10906;45.194;5.684;2024-03-08T18:54:38;3.88;;;2.20;;
21488;SDS011;10906;45.194;5.684;2024-03-08T18:57:22;3.53;;;2.55;;
21488;SDS011;10906;45.194;5.684;2024-03-08T19:00:11;2.58;;;1.98;;
21488;SDS011;10906;45.194;5.684;2024-03-08T19:03:06;2.00;;;1.80;;
21488;SDS011;10906;45.194;5.684;2024-03-08T19:05:57;2.88;;;1.83;;
21488;SDS011;10906;45.194;5.684;2024-03-08T19:08:41;3.53;;;1.83;;
21488;SDS011;10906;45.194;5.684;2024-03-08T19:11:26;10.07;;;4.88;;
21488;SDS011;10906;45.194;5.684;2024-03-08T19:14:10;2.70;;;1.70;;
21488;SDS011;10906;45.194;5.684;2024-03-08T19:16:55;5.65;;;3.35;;
21488;SDS011;10906;45.194;5.684;2024-03-08T19:19:39;49.03;;;32.95;;
21488;SDS011;10906;45.194;5.684;2024-03-08T19:22:24;12.27;;;8.02;;
21488;SDS011;10906;45.194;5.684;2024-03-08T19:25:09;65.57;;;44.78;;
21488;SDS011;10906;45.194;5.684;2024-03-08T19:27:57;26.38;;;21.30;;
21488;SDS011;10906;45.194;5.684;2024-03-08T19:30:43;20.90;;;16.92;;
21488;SDS011;10906;45.194;5.684;2024-03-08T19:33:28;19.23;;;15.98;;
21488;SDS011;10906;45.194;5.684;2024-03-08T19:36:12;107.68;;;78.40;;
21488;SDS011;10906;45.194;5.684;2024-03-08T19:39:01;90.80;;;64.97;;
21488;SDS011;10906;45.194;5.684;2024-03-08T19:41:50;31.33;;;22.10;;
21488;SDS011;10906;45.194;5.684;2024-03-08T19:44:34;35.92;;;26.23;;
21488;SDS011;10906;45.194;5.684;2024-03-08T19:47:19;6.15;;;3.50;;
21488;SDS011;10906;45.194;5.684;2024-03-08T19:50:04;5.85;;;3.03;;
21488;SDS011;10906;45.194;5.684;2024-03-08T19:52:53;5.20;;;3.42;;
21488;SDS011;10906;45.194;5.684;2024-03-08T19:55:38;16.27;;;10.23;;
21488;SDS011;10906;45.194;5.684;2024-03-08T19:58:23;110.82;;;69.03;;
21488;SDS011;10906;45.194;5.684;2024-03-08T20:01:08;7.75;;;4.80;;
21488;SDS011;10906;45.194;5.684;2024-03-08T20:03:53;7.80;;;5.63;;
21488;SDS011;10906;45.194;5.684;2024-03-08T20:06:38;4.30;;;2.72;;
21488;SDS011;10906;45.194;5.684;2024-03-08T20:09:28;2.30;;;1.95;;
21488;SDS011;10906;45.194;5.684;2024-03-08T20:12:13;6.32;;;4.03;;
21488;SDS011;10906;45.194;5.684;2024-03-08T20:14:58;4.68;;;3.50;;
21488;SDS011;10906;45.194;5.684;2024-03-08T20:17:43;6.10;;;4.28;;
21488;SDS011;10906;45.194;5.684;2024-03-08T20:20:29;4.35;;;2.55;;
21488;SDS011;10906;45.194;5.684;2024-03-08T20:23:14;3.63;;;2.10;;
21488;SDS011;10906;45.194;5.684;2024-03-08T20:25:59;4.50;;;3.20;;
21488;SDS011;10906;45.194;5.684;2024-03-08T20:28:48;7.63;;;5.80;;
21488;SDS011;10906;45.194;5.684;2024-03-08T20:31:35;7.03;;;4.07;;
21488;SDS011;10906;45.194;5.684;2024-03-08T20:34:19;6.93;;;4.88;;
21488;SDS011;10906;45.194;5.684;2024-03-08T20:37:04;4.63;;;2.28;;
21488;SDS011;10906;45.194;5.684;2024-03-08T20:39:52;4.72;;;2.50;;
21488;SDS011;10906;45.194;5.684;2024-03-08T20:42:37;4.57;;;2.90;;
21488;SDS011;10906;45.194;5.684;2024-03-08T20:45:29;6.50;;;3.03;;
21488;SDS011;10906;45.194;5.684;2024-03-08T20:48:13;10.50;;;6.95;;
21488;SDS011;10906;45.194;5.684;2024-03-08T20:50:58;7.82;;;4.97;;
21488;SDS011;10906;45.194;5.684;2024-03-08T20:53:44;5.70;;;3.42;;
21488;SDS011;10906;45.194;5.684;2024-03-08T20:56:29;9.73;;;5.35;;
21488;SDS011;10906;45.194;5.684;2024-03-08T20:59:14;16.08;;;9.88;;
21488;SDS011;10906;45.194;5.684;2024-03-08T21:01:58;8.00;;;4.82;;
21488;SDS011;10906;45.194;5.684;2024-03-08T21:04:43;31.48;;;19.67;;
21488;SDS011;10906;45.194;5.684;2024-03-08T21:07:31;10.18;;;7.53;;
21488;SDS011;10906;45.194;5.684;2024-03-08T21:10:16;4.13;;;2.75;;
21488;SDS011;10906;45.194;5.684;2024-03-08T21:13:00;3.75;;;2.83;;
21488;SDS011;10906;45.194;5.684;2024-03-08T21:15:45;2.90;;;1.73;;
21488;SDS011;10906;45.194;5.684;2024-03-08T21:18:29;4.28;;;2.53;;
21488;SDS011;10906;45.194;5.684;2024-03-08T21:21:14;4.10;;;2.60;;
21488;SDS011;10906;45.194;5.684;2024-03-08T21:23:59;21.88;;;16.38;;
21488;SDS011;10906;45.194;5.684;2024-03-08T21:26:44;6.22;;;4.15;;
21488;SDS011;10906;45.194;5.684;2024-03-08T21:29:39;2.88;;;1.60;;
21488;SDS011;10906;45.194;5.684;2024-03-08T21:32:23;5.50;;;2.90;;
21488;SDS011;10906;45.194;5.684;2024-03-08T21:35:08;6.00;;;4.18;;
21488;SDS011;10906;45.194;5.684;2024-03-08T21:37:53;6.55;;;4.70;;
21488;SDS011;10906;45.194;5.684;2024-03-08T21:40:37;4.70;;;3.05;;
21488;SDS011;10906;45.194;5.684;2024-03-08T21:43:25;4.80;;;2.30;;
21488;SDS011;10906;45.194;5.684;2024-03-08T21:46:15;4.70;;;3.25;;
21488;SDS011;10906;45.194;5.684;2024-03-08T21:48:59;6.55;;;4.05;;
21488;SDS011;10906;45.194;5.684;2024-03-08T21:51:50;3.72;;;2.15;;
21488;SDS011;10906;45.194;5.684;2024-03-08T21:54:53;5.38;;;2.50;;
21488;SDS011;10906;45.194;5.684;2024-03-08T21:57:38;3.22;;;1.80;;
21488;SDS011;10906;45.194;5.684;2024-03-08T22:00:22;4.18;;;2.72;;
21488;SDS011;10906;45.194;5.684;2024-03-08T22:03:07;3.78;;;2.80;;
21488;SDS011;10906;45.194;5.684;2024-03-08T22:05:54;6.15;;;2.90;;
21488;SDS011;10906;45.194;5.684;2024-03-08T22:08:42;3.45;;;2.65;;
21488;SDS011;10906;45.194;5.684;2024-03-08T22:11:30;4.97;;;3.15;;
21488;SDS011;10906;45.194;5.684;2024-03-08T22:14:17;3.28;;;2.30;;
21488;SDS011;10906;45.194;5.684;2024-03-08T22:17:01;4.60;;;2.65;;
21488;SDS011;10906;45.194;5.684;2024-03-08T22:19:50;2.88;;;1.90;;
21488;SDS011;10906;45.194;5.684;2024-03-08T22:22:37;4.32;;;1.67;;
21488;SDS011;10906;45.194;5.684;2024-03-08T22:25:22;2.67;;;1.70;;
21488;SDS011;10906;45.194;5.684;2024-03-08T22:30:53;3.85;;;2.10;;
21488;SDS011;10906;45.194;5.684;2024-03-08T22:33:38;44.45;;;29.95;;
21488;SDS011;10906;45.194;5.684;2024-03-08T22:36:27;5.00;;;3.33;;
21488;SDS011;10906;45.194;5.684;2024-03-08T22:39:14;34.30;;;22.92;;
21488;SDS011;10906;45.194;5.684;2024-03-08T22:42:02;6.15;;;3.85;;
21488;SDS011;10906;45.194;5.684;2024-03-08T22:44:49;6.13;;;4.70;;
21488;SDS011;10906;45.194;5.684;2024-03-08T22:47:40;27.58;;;18.27;;